Weather

BOSCOMBE DOWN (EGDM)

METAR

EGDM 300350Z AUTO 27011KT 9999 BKN018/// BKN080/// 08/06 Q1014

TAF

TAF EGDM 211948Z 2121/2212 23015G25KT 9999 BKN020 TEMPO 2121/2201 BKN012 BECMG 2201/2203 BKN010 PROB30 TEMPO 2201/2208 24020G35KT PROB40 TEMPO 2202/2210 3000 -RADZ BKN006 BECMG 2209/2211 SCT025 TEMPO 2211/2212 SCT015

BRISTOL AIRPORT (EGGD)

METAR

EGGD 300350Z AUTO 26016KT 9999 OVC010 09/07 Q1015

TAF

TAF AMD EGGD 300359Z 3003/3024 26015KT 9999 BKN011 TEMPO 3003/3006 BKN006 PROB40 TEMPO 3003/3006 4000 -DZ BKN003 BECMG 3006/3009 BKN006 TEMPO 3006/3020 3000 -DZ BR BKN003 PROB30 TEMPO 3006/3011 0300 FG BKN001 PROB30 TEMPO 3013/3017 27018G28KT BECMG 3017/3020 22015G26KT TEMPO 3020/3024 4000 RA BKN003 BECMG 3021/3024 28018G28KT PROB30 TEMPO 3023/3024 29024G38KT +SHRA

BRIZE NORTON (EGVN)

METAR

EGVN 300350Z 24007KT 9999 BKN019 BKN055 08/06 Q1013 TEMPO BKN012

TAF

TAF EGVN 300150Z 3003/0103 24009KT 9999 BKN021 TEMPO 3003/3021 -RADZ BKN010 PROB30 TEMPO 3005/3009 7000 BR SCT006 TEMPO 3021/3023 6000 -RA BKN014 PROB30 TEMPO 3021/3023 4000 RA BECMG 3022/3024 BKN030 TEMPO 0100/0103 6000 -SHRA BKN018 PROB30 TEMPO 0100/0103 4000 SHRA BKN010

OXFORD (EGTK)

METAR

EGTK 292220Z 25011KT 5000 BR FEW018 SCT028 04/03 Q1014

Pressure charts

Click to see pressure charts
(redidrection to MetOffice website)